createdAt,value
2023-05-28T00:01:02.137Z,963.92
2023-05-28T00:06:03.758Z,963.92
2023-05-28T00:11:05.728Z,963.9
2023-05-28T00:16:06.261Z,963.86
2023-05-28T00:21:07.988Z,963.82
2023-05-28T00:26:09.166Z,963.78
2023-05-28T00:31:10.319Z,963.78
2023-05-28T00:36:11.847Z,963.75
2023-05-28T00:41:13.371Z,963.7
2023-05-28T00:46:14.648Z,963.69
2023-05-28T00:51:16.433Z,963.71
2023-05-28T00:56:17.901Z,963.65
2023-05-28T01:01:19.422Z,963.64
2023-05-28T01:06:21.353Z,963.6
2023-05-28T01:11:23.009Z,963.57
2023-05-28T01:16:25.159Z,963.55
2023-05-28T01:21:26.862Z,963.59
2023-05-28T01:26:28.989Z,963.53
2023-05-28T01:31:30.818Z,963.49
2023-05-28T01:36:32.045Z,963.49
2023-05-28T01:41:33.999Z,963.49
2023-05-28T01:46:35.785Z,963.5
2023-05-28T01:51:37.303Z,963.46
2023-05-28T01:56:39.441Z,963.44
2023-05-28T02:01:41.204Z,963.45
2023-05-28T02:06:42.874Z,963.43
2023-05-28T02:11:44.515Z,963.38
2023-05-28T02:16:46.666Z,963.41
2023-05-28T02:21:47.930Z,963.4
2023-05-28T02:26:49.273Z,963.37
2023-05-28T02:31:51.355Z,963.35
2023-05-28T02:36:53.156Z,963.39
2023-05-28T02:41:54.377Z,963.44
2023-05-28T02:46:55.777Z,963.42
2023-05-28T02:51:57.011Z,963.38
2023-05-28T02:56:58.416Z,963.41
2023-05-28T03:02:00.232Z,963.42
2023-05-28T03:07:02.189Z,963.5
2023-05-28T03:12:04.319Z,963.51
2023-05-28T03:17:05.867Z,963.49
2023-05-28T03:22:07.675Z,963.54
2023-05-28T03:27:09.197Z,963.58
2023-05-28T03:32:10.798Z,963.55
2023-05-28T03:37:12.905Z,963.53
2023-05-28T03:42:15.008Z,963.5
2023-05-28T03:47:16.603Z,963.5
2023-05-28T03:52:18.764Z,963.52
2023-05-28T03:57:20.565Z,963.55
2023-05-28T04:02:22.726Z,963.54
2023-05-28T04:07:24.202Z,963.53
2023-05-28T04:12:25.873Z,963.53
2023-05-28T04:17:27.573Z,963.58
2023-05-28T04:22:29.321Z,963.63
2023-05-28T04:27:30.574Z,963.67
2023-05-28T04:32:32.727Z,963.69
2023-05-28T04:37:33.900Z,963.69
2023-05-28T04:42:35.284Z,963.71
2023-05-28T04:47:36.644Z,963.78
2023-05-28T04:52:38.620Z,963.78
2023-05-28T04:57:40.153Z,963.79
2023-05-28T05:02:41.538Z,963.82
2023-05-28T05:07:43.422Z,963.82
2023-05-28T05:12:44.972Z,963.82
2023-05-28T05:17:46.553Z,963.84
2023-05-28T05:22:48.056Z,963.81
2023-05-28T05:27:49.736Z,963.85
2023-05-28T05:32:51.115Z,963.85
2023-05-28T06:23:07.299Z,963.82
2023-05-28T07:58:39.374Z,963.74
2023-05-28T08:38:51.539Z,963.64
2023-05-28T08:43:53.556Z,963.59
2023-05-28T08:48:54.967Z,963.65
2023-05-28T08:53:56.555Z,963.59
2023-05-28T08:58:57.824Z,963.48
2023-05-28T09:03:59.816Z,963.52
2023-05-28T09:09:01.217Z,963.54
2023-05-28T09:14:02.622Z,963.42
2023-05-28T09:19:04.196Z,963.42
2023-05-28T09:24:06.095Z,963.4
2023-05-28T09:29:07.878Z,963.37
2023-05-28T09:34:09.718Z,963.3
2023-05-28T09:39:11.782Z,963.42
2023-05-28T09:44:13.268Z,963.35
2023-05-28T09:49:14.912Z,963.32
2023-05-28T09:54:16.405Z,963.28
2023-05-28T09:59:17.718Z,963.3
2023-05-28T10:04:19.466Z,963.31
2023-05-28T10:09:20.754Z,963.21
2023-05-28T10:14:22.343Z,963.28
2023-05-28T10:19:24.355Z,963.33
2023-05-28T10:24:25.553Z,963.23
2023-05-28T10:29:27.258Z,963.25
2023-05-28T10:34:28.571Z,963.25
2023-05-28T10:39:30.294Z,963.2
2023-05-28T10:44:32.166Z,963.09
2023-05-28T10:49:33.663Z,963.08
2023-05-28T10:54:35.522Z,963.04
2023-05-28T10:59:37.666Z,962.98
2023-05-28T11:04:39.713Z,962.95
2023-05-28T11:09:41.040Z,962.99
2023-05-28T11:14:42.787Z,962.98
2023-05-28T11:19:44.476Z,962.94
2023-05-28T11:24:45.919Z,962.87
2023-05-28T11:29:47.928Z,962.85
2023-05-28T11:34:49.599Z,962.86
2023-05-28T11:39:50.902Z,962.8
2023-05-28T11:44:52.191Z,962.79
2023-05-28T11:49:54.093Z,962.73
2023-05-28T11:54:56.280Z,962.71
2023-05-28T11:59:57.612Z,962.67
2023-05-28T12:04:59.091Z,962.65
2023-05-28T12:10:00.955Z,962.64
2023-05-28T12:15:02.864Z,962.7
2023-05-28T12:20:05.028Z,962.65
2023-05-28T12:25:07.015Z,962.63
2023-05-28T12:30:09.159Z,962.58
2023-05-28T12:35:10.345Z,962.59
2023-05-28T12:40:14.203Z,962.56
2023-05-28T12:45:14.159Z,962.51
2023-05-28T12:50:15.974Z,962.53
2023-05-28T12:55:17.771Z,962.41
2023-05-28T13:00:19.214Z,962.4
2023-05-28T13:05:26.232Z,962.38
2023-05-28T13:10:22.994Z,962.3
2023-05-28T13:15:24.343Z,962.38
2023-05-28T13:20:25.758Z,962.28
2023-05-28T13:25:27.216Z,962.23
2023-05-28T13:30:28.708Z,962.2
2023-05-28T13:35:29.897Z,962.18
2023-05-28T13:40:31.188Z,962.14
2023-05-28T13:45:32.612Z,962.13
2023-05-28T13:50:34.676Z,962.13
2023-05-28T13:55:36.872Z,962.02
2023-05-28T14:00:39.530Z,961.92
2023-05-28T14:05:40.192Z,961.91
2023-05-28T14:10:42.045Z,961.9
2023-05-28T14:15:43.627Z,961.84
2023-05-28T14:20:45.684Z,961.74
2023-05-28T14:25:47.108Z,961.58
2023-05-28T14:30:48.493Z,961.74
2023-05-28T14:35:51.233Z,961.68
2023-05-28T14:40:52.149Z,961.57
2023-05-28T14:46:00.427Z,961.56
2023-05-28T14:51:02.043Z,961.6
2023-05-28T14:56:04.093Z,961.7
2023-05-28T15:01:06.023Z,961.66
2023-05-28T15:06:07.872Z,961.63
2023-05-28T15:11:09.082Z,961.61
2023-05-28T15:16:10.419Z,961.68
2023-05-28T15:21:11.832Z,961.65
2023-05-28T15:26:13.678Z,961.66
2023-05-28T15:31:15.796Z,961.7
2023-05-28T15:36:17.289Z,961.63
2023-05-28T15:41:19.177Z,961.62
2023-05-28T15:46:20.438Z,961.69
2023-05-28T15:51:21.697Z,961.68
2023-05-28T15:56:23.235Z,961.69
2023-05-28T16:01:25.340Z,961.59
2023-05-28T16:06:27.411Z,961.52
2023-05-28T16:11:29.270Z,961.5
2023-05-28T16:16:30.899Z,961.5
2023-05-28T16:21:33.002Z,961.54
2023-05-28T16:26:34.657Z,961.55
2023-05-28T16:31:36.422Z,961.52
2023-05-28T16:36:38.558Z,961.44
2023-05-28T16:41:39.887Z,961.43
2023-05-28T16:46:41.490Z,961.46
2023-05-28T16:51:43.365Z,961.47
2023-05-28T16:56:45.208Z,961.47
2023-05-28T17:01:46.544Z,961.49
2023-05-28T17:06:48.309Z,961.51
2023-05-28T17:11:49.946Z,961.57
2023-05-28T17:16:51.300Z,961.57
2023-05-28T17:21:52.643Z,961.57
2023-05-28T17:26:54.311Z,961.61
2023-05-28T17:31:56.044Z,961.63
2023-05-28T17:36:58.018Z,961.63
2023-05-28T17:41:59.249Z,961.69
2023-05-28T17:47:00.429Z,961.7
2023-05-28T17:52:01.895Z,961.79
2023-05-28T17:57:03.094Z,961.75
2023-05-28T18:02:04.866Z,961.77
2023-05-28T18:07:06.204Z,961.8
2023-05-28T18:12:08.218Z,961.73
2023-05-28T18:17:10.233Z,961.77
2023-05-28T18:22:12.328Z,961.75
2023-05-28T18:27:13.774Z,961.76
2023-05-28T18:32:15.668Z,961.74
2023-05-28T18:37:17.331Z,961.72
2023-05-28T18:42:18.834Z,961.69
2023-05-28T18:47:20.526Z,961.75
2023-05-28T18:52:22.598Z,961.79
2023-05-28T18:57:24.422Z,961.79
2023-05-28T19:02:26.225Z,961.84
2023-05-28T19:07:27.777Z,961.85
2023-05-28T19:12:29.883Z,961.92
2023-05-28T19:17:31.931Z,961.94
2023-05-28T19:22:33.200Z,962.01
2023-05-28T19:27:34.488Z,961.98
2023-05-28T19:32:36.434Z,962.06
2023-05-28T19:37:37.752Z,962.08
2023-05-28T19:42:39.427Z,962.07
2023-05-28T19:47:41.119Z,962.12
2023-05-28T19:52:42.818Z,962.2
2023-05-28T19:57:44.778Z,962.22
2023-05-28T20:02:46.281Z,962.22
2023-05-28T20:07:48.394Z,962.25
2023-05-28T20:48:01.198Z,962.39
2023-05-28T20:58:04.551Z,962.36
2023-05-28T21:18:11.439Z,962.42
2023-05-28T23:13:51.064Z,962.18
2023-05-28T23:18:52.956Z,962.16
2023-05-28T23:23:54.307Z,962.21
2023-05-28T23:28:56.354Z,962.26
2023-05-28T23:33:58.382Z,962.2
2023-05-28T23:38:59.782Z,962.18
2023-05-28T23:44:01.403Z,962.15
2023-05-28T23:49:03.305Z,962.17
2023-05-28T23:54:04.532Z,962.22
2023-05-28T23:59:06.375Z,962.2
